Aérodrome :







RETROUVEZ-NOUS SUR...

 
LOGIN :

S'inscrire | Disclaimer

   EN    FR    IT 

 









Légende :    VFR   VFR Marginal   IFR   IFR Intensif   IFR Très Intensif
Visi : 
Plafond : 
>= 8 km
>= 3000ft
5 à 8 km
1000 à 3000 ft
1500m à 5 km
500 à 1000 ft
800 à 1500m
200 à 500 ft
< 800m
< 200 ft
Symboles :   Orages  Brouillard  Fortes neiges  Fortes précipitations  Vent > 20 kt






- Altitude de l'aérodrome : 26 ft
- Code IATA : BLA


SVBC - Gen. Jose Antonio Anzoategui I

DERNIER METAR :
  • 210102Z AUTO 02004KT NCD 27/21 Q1012

METARs EXPIRÉS :
  • 210002Z AUTO 02005KT NCD 28/20 Q1011
  • 202302Z AUTO 02007KT NCD 29/20 Q1011

TAF TAF SVBC
Valide du 21 à 00h jusqu'au 22 à 00h UTC


202200Z 2100/2200 31008KT 9999 SCT010 SCT100 TX32/17Z TN25/08Z
TEMPO 2100/2104 VRB08KT 9999 BKN016 08006KT 9999 SCT010



MET'MAP, la Météo Aéronautique d'un coup d'oeil ! - Copyright ORBIFLY Décembre 2007 - Disclaimer

ORBIFLY MET'MAP TEAM :

Programmation & Développement : Alexandra Zaïnal
Sur une idée originale de : Baudouin d'Aumeries
Assistance à la programmation : Marc-Olivier Méhu
Soutien technique & logistique : Manuel Goepfert

Contact : metmap@orbifly.com




SOURCES & CREDITS :

   NOAA